sensor_id;sensor_type;location;lat;lon;timestamp;pressure;altitude;pressure_sealevel;temperature;humidity
73455;BME280;61690;51.824;6.306;2022-07-21T00:00:36;101655.53;;;26.30;45.37
73455;BME280;61690;51.824;6.306;2022-07-21T00:03:01;101670.69;;;26.29;44.81
73455;BME280;61690;51.824;6.306;2022-07-21T00:05:27;101673.47;;;26.28;45.25
73455;BME280;61690;51.824;6.306;2022-07-21T00:07:53;101676.97;;;26.28;45.25
73455;BME280;61690;51.824;6.306;2022-07-21T00:10:20;101687.66;;;26.28;44.97
73455;BME280;61690;51.824;6.306;2022-07-21T00:12:46;101682.44;;;26.27;45.32
73455;BME280;61690;51.824;6.306;2022-07-21T00:15:13;101687.78;;;26.27;45.14
73455;BME280;61690;51.824;6.306;2022-07-21T00:17:38;101680.63;;;26.27;45.33
73455;BME280;61690;51.824;6.306;2022-07-21T00:20:05;101673.59;;;26.26;45.39
73455;BME280;61690;51.824;6.306;2022-07-21T00:22:31;101678.09;;;26.26;45.24
73455;BME280;61690;51.824;6.306;2022-07-21T00:24:56;101675.44;;;26.26;45.19
73455;BME280;61690;51.824;6.306;2022-07-21T00:27:23;101672.78;;;26.26;45.17
73455;BME280;61690;51.824;6.306;2022-07-21T00:29:49;101671.91;;;26.25;45.31
73455;BME280;61690;51.824;6.306;2022-07-21T00:32:14;101671.91;;;26.25;45.31
73455;BME280;61690;51.824;6.306;2022-07-21T00:34:40;101668.41;;;26.25;45.34
73455;BME280;61690;51.824;6.306;2022-07-21T00:37:05;101670.22;;;26.24;44.87
73455;BME280;61690;51.824;6.306;2022-07-21T00:39:30;101664.88;;;26.24;45.39
73455;BME280;61690;51.824;6.306;2022-07-21T00:41:56;101661.38;;;26.24;45.41
73455;BME280;61690;51.824;6.306;2022-07-21T00:44:23;101660.53;;;26.23;45.15
73455;BME280;61690;51.824;6.306;2022-07-21T00:46:49;101659.69;;;26.23;45.06
73455;BME280;61690;51.824;6.306;2022-07-21T00:49:14;101667.69;;;26.23;45.41
73455;BME280;61690;51.824;6.306;2022-07-21T00:51:40;101660.69;;;26.21;45.30
73455;BME280;61690;51.824;6.306;2022-07-21T00:54:06;101660.69;;;26.21;45.10
73455;BME280;61690;51.824;6.306;2022-07-21T00:56:31;101647.34;;;26.21;45.03
73455;BME280;61690;51.824;6.306;2022-07-21T00:58:57;101643.81;;;26.21;45.35
73455;BME280;61690;51.824;6.306;2022-07-21T01:01:23;101646.47;;;26.21;45.08
73455;BME280;61690;51.824;6.306;2022-07-21T01:03:48;101648.44;;;26.19;44.93
73455;BME280;61690;51.824;6.306;2022-07-21T01:06:13;101648.44;;;26.19;45.49
73455;BME280;61690;51.824;6.306;2022-07-21T01:08:39;101649.28;;;26.19;45.43
73455;BME280;61690;51.824;6.306;2022-07-21T01:11:05;101654.59;;;26.19;45.34
73455;BME280;61690;51.824;6.306;2022-07-21T01:13:30;101649.28;;;26.19;45.48
73455;BME280;61690;51.824;6.306;2022-07-21T01:15:56;101647.59;;;26.18;44.92
73455;BME280;61690;51.824;6.306;2022-07-21T01:18:22;101649.44;;;26.18;45.07
73455;BME280;61690;51.824;6.306;2022-07-21T01:20:54;101649.44;;;26.18;45.03
73455;BME280;61690;51.824;6.306;2022-07-21T01:23:21;101658.38;;;26.17;45.38
73455;BME280;61690;51.824;6.306;2022-07-21T01:25:47;101653.06;;;26.17;45.40
73455;BME280;61690;51.824;6.306;2022-07-21T01:28:13;101654.06;;;26.16;45.33
73455;BME280;61690;51.824;6.306;2022-07-21T01:30:39;101661.06;;;26.17;45.59
73455;BME280;61690;51.824;6.306;2022-07-21T01:33:04;101660.22;;;26.16;45.08
73455;BME280;61690;51.824;6.306;2022-07-21T01:35:29;101657.56;;;26.16;45.17
73455;BME280;61690;51.824;6.306;2022-07-21T01:37:55;101655.84;;;26.15;45.14
73455;BME280;61690;51.824;6.306;2022-07-21T01:40:20;101660.34;;;26.15;45.38
73455;BME280;61690;51.824;6.306;2022-07-21T01:43:04;101665.69;;;26.15;45.63
73455;BME280;61690;51.824;6.306;2022-07-21T01:45:30;101659.50;;;26.14;45.13
73455;BME280;61690;51.824;6.306;2022-07-21T01:47:56;101653.34;;;26.14;45.61
73455;BME280;61690;51.824;6.306;2022-07-21T01:50:22;101655.13;;;26.13;45.15
73455;BME280;61690;51.824;6.306;2022-07-21T01:52:55;101657.81;;;26.13;45.04
73455;BME280;61690;51.824;6.306;2022-07-21T01:55:22;101660.47;;;26.13;45.46
73455;BME280;61690;51.824;6.306;2022-07-21T01:57:47;101654.31;;;26.13;45.49
73455;BME280;61690;51.824;6.306;2022-07-21T02:00:13;101647.25;;;26.12;45.60
73455;BME280;61690;51.824;6.306;2022-07-21T02:02:38;101649.09;;;26.11;45.50
73455;BME280;61690;51.824;6.306;2022-07-21T02:05:04;101639.25;;;26.12;45.13
73455;BME280;61690;51.824;6.306;2022-07-21T02:07:29;101638.44;;;26.11;45.16
73455;BME280;61690;51.824;6.306;2022-07-21T02:09:54;101640.25;;;26.11;45.46
73455;BME280;61690;51.824;6.306;2022-07-21T02:12:20;101624.38;;;26.09;45.55
73455;BME280;61690;51.824;6.306;2022-07-21T02:14:45;101630.56;;;26.10;45.56
73455;BME280;61690;51.824;6.306;2022-07-21T02:17:11;101643.75;;;26.11;45.43
73455;BME280;61690;51.824;6.306;2022-07-21T02:19:36;101647.41;;;26.10;45.64
73455;BME280;61690;51.824;6.306;2022-07-21T02:22:01;101637.72;;;26.09;45.52
73455;BME280;61690;51.824;6.306;2022-07-21T02:24:27;101634.22;;;26.09;45.49
73455;BME280;61690;51.824;6.306;2022-07-21T02:26:52;101631.69;;;26.07;45.72
73455;BME280;61690;51.824;6.306;2022-07-21T02:29:17;101642.22;;;26.09;45.35
73455;BME280;61690;51.824;6.306;2022-07-21T02:31:43;101632.50;;;26.08;45.13
73455;BME280;61690;51.824;6.306;2022-07-21T02:34:08;101638.72;;;26.08;45.23
73455;BME280;61690;51.824;6.306;2022-07-21T02:36:34;101635.19;;;26.08;45.23
73455;BME280;61690;51.824;6.306;2022-07-21T02:39:00;101637.00;;;26.07;45.69
73455;BME280;61690;51.824;6.306;2022-07-21T02:41:26;101637.00;;;26.07;45.17
73455;BME280;61690;51.824;6.306;2022-07-21T02:43:51;101632.66;;;26.06;45.21
73455;BME280;61690;51.824;6.306;2022-07-21T02:46:16;101634.47;;;26.06;45.29
73455;BME280;61690;51.824;6.306;2022-07-21T02:48:42;101630.00;;;26.06;45.70
73455;BME280;61690;51.824;6.306;2022-07-21T02:51:07;101632.66;;;26.06;45.17
73455;BME280;61690;51.824;6.306;2022-07-21T02:53:33;101625.75;;;26.04;45.73
73455;BME280;61690;51.824;6.306;2022-07-21T02:55:58;101629.13;;;26.06;45.04
73455;BME280;61690;51.824;6.306;2022-07-21T02:58:26;101626.59;;;26.04;45.67
73455;BME280;61690;51.824;6.306;2022-07-21T03:03:25;101633.75;;;26.04;45.29
73455;BME280;61690;51.824;6.306;2022-07-21T03:05:51;101640.78;;;26.05;45.74
73455;BME280;61690;51.824;6.306;2022-07-21T03:08:17;101630.38;;;26.01;45.54
73455;BME280;61690;51.824;6.306;2022-07-21T03:10:42;101634.75;;;26.02;45.67
73455;BME280;61690;51.824;6.306;2022-07-21T03:13:08;101637.53;;;26.01;45.79
73455;BME280;61690;51.824;6.306;2022-07-21T03:15:34;101640.09;;;26.02;45.86
73455;BME280;61690;51.824;6.306;2022-07-21T03:17:59;101633.03;;;26.01;45.40
73455;BME280;61690;51.824;6.306;2022-07-21T03:20:27;101634.88;;;26.01;45.43
73455;BME280;61690;51.824;6.306;2022-07-21T03:22:53;101631.38;;;26.00;45.77
73455;BME280;61690;51.824;6.306;2022-07-21T03:25:19;101635.84;;;26.00;45.45
73455;BME280;61690;51.824;6.306;2022-07-21T03:27:45;101635.00;;;25.99;45.88
73455;BME280;61690;51.824;6.306;2022-07-21T03:30:11;101639.50;;;25.99;45.33
73455;BME280;61690;51.824;6.306;2022-07-21T03:32:37;101635.00;;;25.99;45.81
73455;BME280;61690;51.824;6.306;2022-07-21T03:35:04;101639.50;;;25.99;45.43
73455;BME280;61690;51.824;6.306;2022-07-21T03:37:30;101641.31;;;25.98;45.48
73455;BME280;61690;51.824;6.306;2022-07-21T03:39:56;101637.78;;;25.98;45.71
73455;BME280;61690;51.824;6.306;2022-07-21T03:42:21;101631.63;;;25.97;45.45
73455;BME280;61690;51.824;6.306;2022-07-21T03:44:47;101632.47;;;25.98;45.44
73455;BME280;61690;51.824;6.306;2022-07-21T03:47:12;101636.13;;;25.97;45.83
73455;BME280;61690;51.824;6.306;2022-07-21T03:49:37;101630.78;;;25.97;45.81
73455;BME280;61690;51.824;6.306;2022-07-21T03:52:03;101624.59;;;25.96;45.42
73455;BME280;61690;51.824;6.306;2022-07-21T03:54:28;101626.28;;;25.97;45.62
73455;BME280;61690;51.824;6.306;2022-07-21T03:56:54;101628.13;;;25.97;45.55
73455;BME280;61690;51.824;6.306;2022-07-21T03:59:19;101621.91;;;25.96;45.72
73455;BME280;61690;51.824;6.306;2022-07-21T04:01:44;101622.09;;;25.95;45.76
73455;BME280;61690;51.824;6.306;2022-07-21T04:04:10;101625.59;;;25.95;45.71
73455;BME280;61690;51.824;6.306;2022-07-21T04:06:35;101622.09;;;25.95;45.54
73455;BME280;61690;51.824;6.306;2022-07-21T04:09:01;101616.75;;;25.95;45.51
73455;BME280;61690;51.824;6.306;2022-07-21T04:11:26;101612.38;;;25.94;45.78
73455;BME280;61690;51.824;6.306;2022-07-21T04:13:51;101620.38;;;25.94;45.73
73455;BME280;61690;51.824;6.306;2022-07-21T04:16:17;101618.69;;;25.93;45.43
73455;BME280;61690;51.824;6.306;2022-07-21T04:18:42;101616.88;;;25.93;45.52
73455;BME280;61690;51.824;6.306;2022-07-21T04:21:07;101622.34;;;25.92;45.73
73455;BME280;61690;51.824;6.306;2022-07-21T04:23:33;101622.22;;;25.93;45.53
73455;BME280;61690;51.824;6.306;2022-07-21T04:25:58;101621.38;;;25.93;45.46
73455;BME280;61690;51.824;6.306;2022-07-21T04:28:23;101612.63;;;25.91;45.51
73455;BME280;61690;51.824;6.306;2022-07-21T04:30:49;101615.28;;;25.91;45.83
73455;BME280;61690;51.824;6.306;2022-07-21T04:33:14;101604.63;;;25.91;45.62
73455;BME280;61690;51.824;6.306;2022-07-21T04:35:40;101616.16;;;25.91;45.57
73455;BME280;61690;51.824;6.306;2022-07-21T04:38:05;101609.09;;;25.90;45.45
73455;BME280;61690;51.824;6.306;2022-07-21T04:40:31;101616.16;;;25.91;45.74
73455;BME280;61690;51.824;6.306;2022-07-21T04:42:56;101611.75;;;25.90;45.74
73455;BME280;61690;51.824;6.306;2022-07-21T04:45:21;101610.09;;;25.89;45.42
73455;BME280;61690;51.824;6.306;2022-07-21T04:47:49;101602.94;;;25.90;45.61
73455;BME280;61690;51.824;6.306;2022-07-21T04:50:17;101597.59;;;25.90;45.87
73455;BME280;61690;51.824;6.306;2022-07-21T04:52:42;101593.22;;;25.89;45.76
73455;BME280;61690;51.824;6.306;2022-07-21T04:55:08;101579.91;;;25.89;45.88
73455;BME280;61690;51.824;6.306;2022-07-21T04:57:38;101590.56;;;25.89;45.52
73455;BME280;61690;51.824;6.306;2022-07-21T05:00:04;101595.06;;;25.88;45.53
73455;BME280;61690;51.824;6.306;2022-07-21T05:02:30;101594.22;;;25.88;45.76
73455;BME280;61690;51.824;6.306;2022-07-21T05:04:56;101590.56;;;25.89;45.75
73455;BME280;61690;51.824;6.306;2022-07-21T05:07:21;101588.75;;;25.89;45.49
73455;BME280;61690;51.824;6.306;2022-07-21T05:09:46;101589.72;;;25.88;45.45
73455;BME280;61690;51.824;6.306;2022-07-21T05:12:12;101590.72;;;25.87;45.88
73455;BME280;61690;51.824;6.306;2022-07-21T05:14:37;101585.38;;;25.87;45.56
73455;BME280;61690;51.824;6.306;2022-07-21T05:17:02;101589.72;;;25.88;45.83
73455;BME280;61690;51.824;6.306;2022-07-21T05:19:27;101592.50;;;25.87;45.61
73455;BME280;61690;51.824;6.306;2022-07-21T05:21:53;101585.22;;;25.89;45.76
73455;BME280;61690;51.824;6.306;2022-07-21T05:24:18;101588.06;;;25.87;45.51
73455;BME280;61690;51.824;6.306;2022-07-21T05:26:43;101591.56;;;25.88;45.77
73455;BME280;61690;51.824;6.306;2022-07-21T05:29:09;101585.38;;;25.87;45.41
73455;BME280;61690;51.824;6.306;2022-07-21T05:31:34;101594.22;;;25.88;45.29
73455;BME280;61690;51.824;6.306;2022-07-21T05:33:59;101591.56;;;25.88;45.73
73455;BME280;61690;51.824;6.306;2022-07-21T05:36:25;101587.19;;;25.87;45.36
73455;BME280;61690;51.824;6.306;2022-07-21T05:38:50;101592.50;;;25.87;45.41
73455;BME280;61690;51.824;6.306;2022-07-21T05:41:15;101595.19;;;25.87;45.72
73455;BME280;61690;51.824;6.306;2022-07-21T05:43:41;101588.19;;;25.86;45.50
73455;BME280;61690;51.824;6.306;2022-07-21T05:46:06;101590.84;;;25.86;45.68
73455;BME280;61690;51.824;6.306;2022-07-21T05:48:31;101591.69;;;25.86;45.78
73455;BME280;61690;51.824;6.306;2022-07-21T05:50:57;101593.50;;;25.86;45.83
73455;BME280;61690;51.824;6.306;2022-07-21T05:53:22;101593.50;;;25.86;45.51
73455;BME280;61690;51.824;6.306;2022-07-21T05:55:47;101602.47;;;25.85;45.83
73455;BME280;61690;51.824;6.306;2022-07-21T05:58:13;101606.00;;;25.85;45.45
73455;BME280;61690;51.824;6.306;2022-07-21T06:00:38;101591.81;;;25.85;45.88
73455;BME280;61690;51.824;6.306;2022-07-21T06:03:04;101594.47;;;25.85;45.78
73455;BME280;61690;51.824;6.306;2022-07-21T06:05:29;101590.00;;;25.85;45.43
73455;BME280;61690;51.824;6.306;2022-07-21T06:07:55;101591.81;;;25.85;45.70
73455;BME280;61690;51.824;6.306;2022-07-21T06:10:20;101589.16;;;25.85;45.48
73455;BME280;61690;51.824;6.306;2022-07-21T06:12:45;101590.13;;;25.83;45.82
73455;BME280;61690;51.824;6.306;2022-07-21T06:15:12;101591.81;;;25.85;45.50
73455;BME280;61690;51.824;6.306;2022-07-21T06:17:42;101590.84;;;25.86;45.45
73455;BME280;61690;51.824;6.306;2022-07-21T06:20:08;101597.00;;;25.86;45.85
73455;BME280;61690;51.824;6.306;2022-07-21T06:22:34;101597.84;;;25.87;45.74
73455;BME280;61690;51.824;6.306;2022-07-21T06:24:59;101601.50;;;25.86;45.78
73455;BME280;61690;51.824;6.306;2022-07-21T06:27:25;101596.19;;;25.86;45.37
73455;BME280;61690;51.824;6.306;2022-07-21T06:29:50;101595.34;;;25.85;45.46
73455;BME280;61690;51.824;6.306;2022-07-21T06:32:15;101602.47;;;25.85;45.72
73455;BME280;61690;51.824;6.306;2022-07-21T06:34:41;101603.47;;;25.83;45.39
73455;BME280;61690;51.824;6.306;2022-07-21T06:37:06;101609.63;;;25.84;45.78
73455;BME280;61690;51.824;6.306;2022-07-21T06:39:31;101611.47;;;25.83;45.80
73455;BME280;61690;51.824;6.306;2022-07-21T06:41:57;101611.47;;;25.83;45.83
73455;BME280;61690;51.824;6.306;2022-07-21T06:44:22;101611.47;;;25.83;45.51
73455;BME280;61690;51.824;6.306;2022-07-21T06:46:50;101602.59;;;25.83;45.44
73455;BME280;61690;51.824;6.306;2022-07-21T06:49:15;101614.97;;;25.84;45.89
73455;BME280;61690;51.824;6.306;2022-07-21T06:51:40;101609.75;;;25.82;45.90
73455;BME280;61690;51.824;6.306;2022-07-21T06:54:06;101607.91;;;25.83;45.93
73455;BME280;61690;51.824;6.306;2022-07-21T06:56:31;101611.47;;;25.83;45.34
73455;BME280;61690;51.824;6.306;2022-07-21T06:58:56;101612.28;;;25.84;45.85
73455;BME280;61690;51.824;6.306;2022-07-21T07:01:22;101625.63;;;25.84;45.85
73455;BME280;61690;51.824;6.306;2022-07-21T07:03:47;101622.13;;;25.83;45.82
73455;BME280;61690;51.824;6.306;2022-07-21T07:06:12;101632.78;;;25.83;45.76
73455;BME280;61690;51.824;6.306;2022-07-21T07:08:38;101630.09;;;25.83;45.57
73455;BME280;61690;51.824;6.306;2022-07-21T07:11:04;101638.09;;;25.83;45.25
73455;BME280;61690;51.824;6.306;2022-07-21T07:13:30;101638.09;;;25.83;45.51
73455;BME280;61690;51.824;6.306;2022-07-21T07:15:55;101640.78;;;25.83;45.50
73455;BME280;61690;51.824;6.306;2022-07-21T07:18:21;101648.78;;;25.83;45.62
73455;BME280;61690;51.824;6.306;2022-07-21T07:20:48;101646.09;;;25.83;45.76
73455;BME280;61690;51.824;6.306;2022-07-21T07:23:14;101647.06;;;25.82;45.83
73455;BME280;61690;51.824;6.306;2022-07-21T07:25:39;101648.06;;;25.81;45.54
73455;BME280;61690;51.824;6.306;2022-07-21T07:28:04;101650.72;;;25.81;45.86
73455;BME280;61690;51.824;6.306;2022-07-21T07:30:30;101645.38;;;25.81;45.85
73455;BME280;61690;51.824;6.306;2022-07-21T07:32:55;101648.06;;;25.81;45.91
73455;BME280;61690;51.824;6.306;2022-07-21T07:35:21;101649.72;;;25.82;45.72
73455;BME280;61690;51.824;6.306;2022-07-21T07:37:47;101653.38;;;25.81;45.46
73455;BME280;61690;51.824;6.306;2022-07-21T07:40:16;101643.69;;;25.80;45.54
73455;BME280;61690;51.824;6.306;2022-07-21T07:42:42;101649.84;;;25.81;45.74
73455;BME280;61690;51.824;6.306;2022-07-21T07:45:08;101650.72;;;25.81;45.81
73455;BME280;61690;51.824;6.306;2022-07-21T07:47:34;101652.53;;;25.81;45.47
73455;BME280;61690;51.824;6.306;2022-07-21T07:49:59;101649.00;;;25.80;45.73
73455;BME280;61690;51.824;6.306;2022-07-21T07:52:25;101642.72;;;25.81;45.46
73455;BME280;61690;51.824;6.306;2022-07-21T07:54:51;101647.19;;;25.81;45.93
73455;BME280;61690;51.824;6.306;2022-07-21T07:57:16;101638.22;;;25.82;45.47
73455;BME280;61690;51.824;6.306;2022-07-21T07:59:42;101645.38;;;25.81;45.75
73455;BME280;61690;51.824;6.306;2022-07-21T08:02:08;101648.06;;;25.81;45.60
73455;BME280;61690;51.824;6.306;2022-07-21T08:04:33;101648.06;;;25.81;45.65
73455;BME280;61690;51.824;6.306;2022-07-21T08:07:00;101642.72;;;25.81;45.80
73455;BME280;61690;51.824;6.306;2022-07-21T08:09:25;101653.22;;;25.83;45.94
73455;BME280;61690;51.824;6.306;2022-07-21T08:11:51;101643.56;;;25.82;45.49
73455;BME280;61690;51.824;6.306;2022-07-21T08:14:17;101650.72;;;25.81;45.91
73455;BME280;61690;51.824;6.306;2022-07-21T08:16:43;101646.22;;;25.82;45.79
73455;BME280;61690;51.824;6.306;2022-07-21T08:19:09;101643.56;;;25.82;45.90
73455;BME280;61690;51.824;6.306;2022-07-21T08:21:35;101634.72;;;25.81;45.57
73455;BME280;61690;51.824;6.306;2022-07-21T08:24:01;101640.91;;;25.82;45.87
73455;BME280;61690;51.824;6.306;2022-07-21T08:26:26;101635.44;;;25.83;45.75
73455;BME280;61690;51.824;6.306;2022-07-21T08:28:53;101630.22;;;25.82;45.86
73455;BME280;61690;51.824;6.306;2022-07-21T08:31:19;101633.75;;;25.82;45.63
73455;BME280;61690;51.824;6.306;2022-07-21T08:33:45;101631.91;;;25.83;45.50
73455;BME280;61690;51.824;6.306;2022-07-21T08:36:10;101635.44;;;25.83;45.93
73455;BME280;61690;51.824;6.306;2022-07-21T08:38:36;101629.25;;;25.83;45.52
73455;BME280;61690;51.824;6.306;2022-07-21T08:41:01;101621.25;;;25.83;45.56
73455;BME280;61690;51.824;6.306;2022-07-21T08:43:27;101626.56;;;25.83;45.33
73455;BME280;61690;51.824;6.306;2022-07-21T08:45:53;101624.78;;;25.83;45.55
73455;BME280;61690;51.824;6.306;2022-07-21T08:48:26;101630.09;;;25.83;45.53
73455;BME280;61690;51.824;6.306;2022-07-21T08:50:53;101626.44;;;25.85;45.97
73455;BME280;61690;51.824;6.306;2022-07-21T08:53:18;101626.44;;;25.85;45.93
73455;BME280;61690;51.824;6.306;2022-07-21T08:55:44;101631.78;;;25.85;45.52
73455;BME280;61690;51.824;6.306;2022-07-21T08:58:11;101630.00;;;25.85;45.41
73455;BME280;61690;51.824;6.306;2022-07-21T09:00:39;101628.16;;;25.86;45.76
73455;BME280;61690;51.824;6.306;2022-07-21T09:03:16;101625.50;;;25.86;45.97
73455;BME280;61690;51.824;6.306;2022-07-21T09:05:43;101621.00;;;25.86;45.90
73455;BME280;61690;51.824;6.306;2022-07-21T09:08:38;101618.34;;;25.86;45.97
73455;BME280;61690;51.824;6.306;2022-07-21T09:11:23;101627.31;;;25.85;46.08
73455;BME280;61690;51.824;6.306;2022-07-21T09:14:05;101630.09;;;25.83;45.97
73455;BME280;61690;51.824;6.306;2022-07-21T09:16:42;101623.06;;;25.82;46.05
73455;BME280;61690;51.824;6.306;2022-07-21T09:21:45;101627.56;;;25.82;46.09
73455;BME280;61690;51.824;6.306;2022-07-21T09:24:17;101624.06;;;25.81;46.13
73455;BME280;61690;51.824;6.306;2022-07-21T09:27:03;101638.22;;;25.82;46.09
73455;BME280;61690;51.824;6.306;2022-07-21T09:29:58;101639.06;;;25.82;45.87
73455;BME280;61690;51.824;6.306;2022-07-21T09:35:15;101642.72;;;25.81;45.85
73455;BME280;61690;51.824;6.306;2022-07-21T09:37:41;101644.41;;;25.82;46.06
73455;BME280;61690;51.824;6.306;2022-07-21T09:40:09;101640.91;;;25.82;46.19
73455;BME280;61690;51.824;6.306;2022-07-21T09:42:37;101649.72;;;25.82;46.11
73455;BME280;61690;51.824;6.306;2022-07-21T09:45:09;101650.56;;;25.83;45.73
73455;BME280;61690;51.824;6.306;2022-07-21T09:47:35;101647.91;;;25.83;46.19
73455;BME280;61690;51.824;6.306;2022-07-21T09:50:05;101646.22;;;25.82;46.27
73455;BME280;61690;51.824;6.306;2022-07-21T09:52:33;101644.41;;;25.82;46.23
73455;BME280;61690;51.824;6.306;2022-07-21T09:55:01;101647.06;;;25.82;45.91
73455;BME280;61690;51.824;6.306;2022-07-21T09:57:28;101650.72;;;25.81;46.23
73455;BME280;61690;51.824;6.306;2022-07-21T09:59:53;101648.06;;;25.81;45.71
73455;BME280;61690;51.824;6.306;2022-07-21T10:02:21;101654.34;;;25.80;46.20
73455;BME280;61690;51.824;6.306;2022-07-21T10:05:14;101653.38;;;25.81;45.95
73455;BME280;61690;51.824;6.306;2022-07-21T10:07:45;101654.34;;;25.80;46.33
73455;BME280;61690;51.824;6.306;2022-07-21T10:10:12;101656.19;;;25.80;45.87
73455;BME280;61690;51.824;6.306;2022-07-21T10:12:38;101656.19;;;25.80;45.93
73455;BME280;61690;51.824;6.306;2022-07-21T10:15:04;101651.69;;;25.80;46.27
73455;BME280;61690;51.824;6.306;2022-07-21T10:17:30;101655.34;;;25.79;46.00
73455;BME280;61690;51.824;6.306;2022-07-21T10:20:13;101654.22;;;25.82;46.23
73455;BME280;61690;51.824;6.306;2022-07-21T10:25:09;101658.00;;;25.79;45.83
73455;BME280;61690;51.824;6.306;2022-07-21T10:27:35;101657.00;;;25.80;46.01
73455;BME280;61690;51.824;6.306;2022-07-21T10:30:03;101666.00;;;25.79;46.08
73455;BME280;61690;51.824;6.306;2022-07-21T10:32:39;101664.16;;;25.80;46.03
73455;BME280;61690;51.824;6.306;2022-07-21T10:35:28;101662.34;;;25.80;45.91
73455;BME280;61690;51.824;6.306;2022-07-21T10:37:54;101665.13;;;25.79;46.40
73455;BME280;61690;51.824;6.306;2022-07-21T10:45:38;101664.28;;;25.78;46.10
73455;BME280;61690;51.824;6.306;2022-07-21T10:48:06;101663.47;;;25.78;46.15
73455;BME280;61690;51.824;6.306;2022-07-21T10:50:38;101662.63;;;25.77;46.07
73455;BME280;61690;51.824;6.306;2022-07-21T10:53:17;101666.97;;;25.78;45.95
73455;BME280;61690;51.824;6.306;2022-07-21T10:55:50;101664.28;;;25.78;46.39
73455;BME280;61690;51.824;6.306;2022-07-21T11:00:46;101668.06;;;25.76;46.27
73455;BME280;61690;51.824;6.306;2022-07-21T11:03:16;101668.78;;;25.78;46.31
73455;BME280;61690;51.824;6.306;2022-07-21T11:11:17;101673.28;;;25.77;46.00
73455;BME280;61690;51.824;6.306;2022-07-21T11:19:46;101666.97;;;25.78;46.28
73455;BME280;61690;51.824;6.306;2022-07-21T11:22:20;101666.25;;;25.76;46.44
73455;BME280;61690;51.824;6.306;2022-07-21T11:24:52;101668.78;;;25.78;46.16
73455;BME280;61690;51.824;6.306;2022-07-21T11:27:22;101670.63;;;25.77;46.02
73455;BME280;61690;51.824;6.306;2022-07-21T11:29:49;101663.47;;;25.78;46.29
73455;BME280;61690;51.824;6.306;2022-07-21T11:32:15;101668.78;;;25.78;46.18
73455;BME280;61690;51.824;6.306;2022-07-21T11:34:52;101670.63;;;25.77;46.07
73455;BME280;61690;51.824;6.306;2022-07-21T11:39:55;101683.94;;;25.77;45.97
73455;BME280;61690;51.824;6.306;2022-07-21T11:42:20;101679.56;;;25.76;46.29
73455;BME280;61690;51.824;6.306;2022-07-21T11:44:46;101682.22;;;25.76;46.11
73455;BME280;61690;51.824;6.306;2022-07-21T11:47:15;101682.22;;;25.76;46.40
73455;BME280;61690;51.824;6.306;2022-07-21T11:49:42;101686.72;;;25.76;46.38
73455;BME280;61690;51.824;6.306;2022-07-21T11:52:11;101684.06;;;25.76;46.08
73455;BME280;61690;51.824;6.306;2022-07-21T11:54:42;101669.88;;;25.75;46.00
73455;BME280;61690;51.824;6.306;2022-07-21T11:57:08;101677.88;;;25.75;46.17
73455;BME280;61690;51.824;6.306;2022-07-21T11:59:35;101680.53;;;25.75;46.44
73455;BME280;61690;51.824;6.306;2022-07-21T12:02:21;101671.56;;;25.76;46.42
73455;BME280;61690;51.824;6.306;2022-07-21T12:04:47;101676.91;;;25.76;46.16
73455;BME280;61690;51.824;6.306;2022-07-21T12:07:16;101680.53;;;25.75;46.48
73455;BME280;61690;51.824;6.306;2022-07-21T12:09:44;101677.75;;;25.77;46.00
73455;BME280;61690;51.824;6.306;2022-07-21T12:12:10;101668.91;;;25.76;46.23
73455;BME280;61690;51.824;6.306;2022-07-21T12:17:05;101669.88;;;25.75;46.19
73455;BME280;61690;51.824;6.306;2022-07-21T12:19:30;101676.91;;;25.76;46.53
73455;BME280;61690;51.824;6.306;2022-07-21T12:21:56;101660.06;;;25.76;46.52
73455;BME280;61690;51.824;6.306;2022-07-21T12:24:21;101676.91;;;25.76;46.15
73455;BME280;61690;51.824;6.306;2022-07-21T12:26:47;101677.75;;;25.77;46.44
73455;BME280;61690;51.824;6.306;2022-07-21T12:29:29;101680.53;;;25.75;46.09
73455;BME280;61690;51.824;6.306;2022-07-21T12:31:55;101676.06;;;25.76;46.23
73455;BME280;61690;51.824;6.306;2022-07-21T12:34:20;101677.88;;;25.75;46.48
73455;BME280;61690;51.824;6.306;2022-07-21T12:36:47;101687.69;;;25.75;46.45
73455;BME280;61690;51.824;6.306;2022-07-21T12:39:21;101684.19;;;25.74;46.67
73455;BME280;61690;51.824;6.306;2022-07-21T12:42:09;101684.19;;;25.74;46.13
73455;BME280;61690;51.824;6.306;2022-07-21T12:44:36;101688.78;;;25.72;46.07
73455;BME280;61690;51.824;6.306;2022-07-21T12:47:19;101697.50;;;25.74;46.38
73455;BME280;61690;51.824;6.306;2022-07-21T12:49:54;101695.81;;;25.73;46.48
73455;BME280;61690;51.824;6.306;2022-07-21T12:52:20;101703.78;;;25.73;46.42
73455;BME280;61690;51.824;6.306;2022-07-21T12:54:45;101704.78;;;25.72;46.35
73455;BME280;61690;51.824;6.306;2022-07-21T12:57:11;101702.97;;;25.73;45.99
73455;BME280;61690;51.824;6.306;2022-07-21T12:59:36;101698.47;;;25.73;46.11
73455;BME280;61690;51.824;6.306;2022-07-21T13:02:01;101702.00;;;25.74;46.48
73455;BME280;61690;51.824;6.306;2022-07-21T13:04:26;101700.19;;;25.74;46.54
73455;BME280;61690;51.824;6.306;2022-07-21T13:06:52;101693.13;;;25.73;46.12
73455;BME280;61690;51.824;6.306;2022-07-21T13:09:17;101689.50;;;25.74;46.51
73455;BME280;61690;51.824;6.306;2022-07-21T13:11:42;101694.00;;;25.74;46.50
73455;BME280;61690;51.824;6.306;2022-07-21T13:14:08;101696.78;;;25.72;45.96
73455;BME280;61690;51.824;6.306;2022-07-21T13:16:34;101703.78;;;25.73;46.20
73455;BME280;61690;51.824;6.306;2022-07-21T13:19:00;101695.81;;;25.73;46.32
73455;BME280;61690;51.824;6.306;2022-07-21T13:21:25;101697.50;;;25.74;46.24
73455;BME280;61690;51.824;6.306;2022-07-21T13:23:51;101693.13;;;25.73;46.42